Time;durP1;ratioP1;P1;durP2;ratioP2;P2;SDS_P1;SDS_P2;PMS_P1;PMS_P2;Temp;Humidity;BMP_temperature;BMP_pressure;BME280_temperature;BME280_humidity;BME280_pressure;Samples;Min_cycle;Max_cycle;Signal;HPM_P1;HPM_P2
2023/11/29 00:00:54;;;;;;;16.23;5.40;;;;;;;-2.51;65.44;99811.84;5029444;28;20126;-71
2023/11/29 00:03:19;;;;;;;9.80;4.78;;;;;;;-2.90;66.28;99803.41;5025140;28;20053;-70
2023/11/29 00:05:44;;;;;;;7.43;4.63;;;;;;;-3.03;66.98;99805.97;5019574;28;20036;-70
2023/11/29 00:08:10;;;;;;;12.25;4.65;;;;;;;-2.51;65.84;99821.25;5029083;28;20041;-70
2023/11/29 00:10:35;;;;;;;9.80;3.60;;;;;;;-2.28;65.08;99824.56;5023185;28;20044;-70
2023/11/29 00:13:03;;;;;;;7.78;4.68;;;;;;;-1.88;63.42;99826.94;5007460;28;20071;-71
2023/11/29 00:15:28;;;;;;;10.68;4.30;;;;;;;-2.68;66.06;99834.06;5026710;28;20029;-71
2023/11/29 00:17:54;;;;;;;8.65;4.07;;;;;;;-2.74;66.23;99818.72;5030333;28;20099;-71
2023/11/29 00:20:19;;;;;;;6.57;3.78;;;;;;;-2.27;65.13;99816.03;5022861;28;20041;-72
2023/11/29 00:22:45;;;;;;;8.27;3.83;;;;;;;-2.17;64.17;99816.00;5019531;28;20075;-72
2023/11/29 00:25:10;;;;;;;11.23;5.32;;;;;;;-2.02;63.70;99818.47;5031350;28;20136;-72
2023/11/29 00:27:36;;;;;;;8.88;4.60;;;;;;;-1.89;63.33;99832.06;5009226;28;20076;-71
2023/11/29 00:30:02;;;;;;;7.88;4.93;;;;;;;-1.85;63.79;99832.03;5045922;28;20037;-71
2023/11/29 00:32:28;;;;;;;6.65;4.35;;;;;;;-1.69;63.23;99829.38;5007273;28;20039;-73
2023/11/29 00:34:54;;;;;;;6.70;4.53;;;;;;;-2.30;64.72;99841.63;5012477;28;20025;-72
2023/11/29 00:37:21;;;;;;;13.60;5.80;;;;;;;-2.48;65.55;99832.31;5021758;28;20462;-73
2023/11/29 00:39:46;;;;;;;11.15;5.18;;;;;;;-1.98;64.12;99826.97;5013337;28;20040;-70
2023/11/29 00:42:11;;;;;;;8.95;5.55;;;;;;;-1.85;63.27;99820.94;5029197;28;20056;-71
2023/11/29 00:44:37;;;;;;;8.82;4.20;;;;;;;-2.44;64.87;99820.34;5025732;28;20041;-72
2023/11/29 00:47:02;;;;;;;13.77;5.63;;;;;;;-2.17;64.23;99821.09;5012414;28;20074;-72
2023/11/29 00:49:30;;;;;;;11.25;6.15;;;;;;;-1.66;62.68;99829.38;5013879;28;20256;-72
2023/11/29 00:52:01;;;;;;;9.13;5.88;;;;;;;-1.83;62.81;99826.91;5028286;28;20093;-73
2023/11/29 00:54:27;;;;;;;7.50;5.18;;;;;;;-2.08;63.77;99824.47;4999487;28;20041;-73
2023/11/29 00:56:55;;;;;;;9.82;6.15;;;;;;;-2.04;63.97;99821.03;5030663;28;20044;-72
2023/11/29 00:59:20;;;;;;;10.30;6.78;;;;;;;-2.51;65.15;99816.97;5029851;28;20131;-72
2023/11/29 01:01:46;;;;;;;8.27;5.28;;;;;;;-1.99;63.90;99815.91;5023321;28;20025;-72
2023/11/29 01:04:11;;;;;;;10.07;5.43;;;;;;;-1.69;62.91;99814.84;5027441;28;20045;-73
2023/11/29 01:06:38;;;;;;;12.43;6.03;;;;;;;-1.88;63.18;99814.13;5023132;28;20033;-73
2023/11/29 01:09:06;;;;;;;9.57;5.18;;;;;;;-1.66;63.07;99825.09;5034645;28;20044;-73
2023/11/29 01:11:31;;;;;;;8.50;5.93;;;;;;;-2.19;63.80;99826.22;5031908;28;20529;-73
2023/11/29 01:13:57;;;;;;;9.25;5.60;;;;;;;-1.83;63.07;99832.88;5027819;28;20092;-74
2023/11/29 01:16:22;;;;;;;12.93;6.13;;;;;;;-1.84;63.29;99826.06;5025478;28;20047;-73
2023/11/29 01:18:55;;;;;;;12.18;6.93;;;;;;;-1.98;63.74;99830.38;5025519;28;20601;-73
2023/11/29 01:21:20;;;;;;;12.45;6.13;;;;;;;-1.57;62.24;99831.03;5028306;28;20024;-73
2023/11/29 01:23:46;;;;;;;10.32;5.75;;;;;;;-1.75;62.92;99821.75;4992630;28;20048;-72
2023/11/29 01:26:12;;;;;;;8.38;5.13;;;;;;;-1.50;61.54;99818.16;5010119;28;20107;-72
2023/11/29 01:28:41;;;;;;;12.02;4.75;;;;;;;-1.44;62.04;99814.69;5004404;28;20186;-72
2023/11/29 01:31:10;;;;;;;10.32;6.18;;;;;;;-1.75;62.62;99809.78;5009921;28;20431;-73
2023/11/29 01:33:36;;;;;;;10.52;5.53;;;;;;;-1.84;63.06;99808.13;5024660;28;20524;-73
2023/11/29 01:36:06;;;;;;;8.18;5.18;;;;;;;-1.70;62.64;99807.19;5014425;28;20033;-73
2023/11/29 01:38:31;;;;;;;7.68;4.55;;;;;;;-2.15;64.35;99809.16;5024507;28;20144;-73
2023/11/29 01:40:57;;;;;;;9.32;4.95;;;;;;;-2.28;64.87;99798.13;5032971;28;20121;-73
2023/11/29 01:43:28;;;;;;;7.28;4.65;;;;;;;-1.71;63.03;99795.22;4982793;28;20048;-73
2023/11/29 01:45:53;;;;;;;8.60;4.45;;;;;;;-1.85;62.69;99798.72;5029795;28;20060;-69
2023/11/29 01:48:21;;;;;;;12.13;4.40;;;;;;;-1.50;62.44;99792.53;5029185;28;20044;-69
2023/11/29 01:50:48;;;;;;;9.80;4.47;;;;;;;-1.44;61.93;99796.72;5025918;28;20064;-70
2023/11/29 01:53:19;;;;;;;6.97;3.03;;;;;;;-1.69;62.62;99793.50;5031511;28;20770;-69
2023/11/29 01:55:50;;;;;;;5.53;3.67;;;;;;;-1.49;62.12;99786.53;5024392;28;22195;-69
2023/11/29 01:58:17;;;;;;;3.92;2.58;;;;;;;-1.81;62.55;99787.59;5026739;28;20048;-70
2023/11/29 02:00:49;;;;;;;8.15;2.92;;;;;;;-1.57;61.62;99783.19;5025233;28;20037;-70
2023/11/29 02:03:16;;;;;;;4.07;3.13;;;;;;;-1.86;61.77;99776.53;5028906;28;20053;-69
2023/11/29 02:05:41;;;;;;;6.07;2.33;;;;;;;-2.01;61.97;99777.47;5023113;28;20513;-69
2023/11/29 02:08:07;;;;;;;4.63;2.28;;;;;;;-2.19;62.34;99774.19;5029039;28;20044;-69
2023/11/29 02:10:34;;;;;;;4.15;1.90;;;;;;;-1.97;61.72;99773.19;5024969;28;20550;-69
2023/11/29 02:13:09;;;;;;;3.50;2.30;;;;;;;-1.96;61.27;99768.94;5033198;28;20447;-68
2023/11/29 02:15:38;;;;;;;2.95;1.83;;;;;;;-2.54;64.21;99770.06;5024800;28;20126;-68
2023/11/29 02:18:05;;;;;;;4.57;1.50;;;;;;;-2.78;65.01;99764.19;5013247;28;20082;-69
2023/11/29 02:20:31;;;;;;;5.55;2.53;;;;;;;-2.30;64.12;99759.72;4944377;28;2392067;-73
2023/11/29 02:23:31;;;;;;;3.05;1.85;;;;;;;-2.64;64.53;99757.31;5026967;28;20049;-73
2023/11/29 02:25:59;;;;;;;4.35;1.85;;;;;;;-2.61;64.67;99750.47;5008952;28;20492;-73
2023/11/29 02:28:27;;;;;;;4.55;2.30;;;;;;;-2.53;65.05;99764.09;5026603;28;20091;-73
2023/11/29 02:30:52;;;;;;;2.17;1.50;;;;;;;-2.45;64.36;99762.34;5029387;28;20021;-74
2023/11/29 02:33:18;;;;;;;3.65;1.75;;;;;;;-2.14;63.15;99764.75;5027591;28;20594;-73
2023/11/29 02:35:45;;;;;;;3.42;1.98;;;;;;;-2.35;63.69;99756.34;5009134;28;20033;-74
2023/11/29 02:38:11;;;;;;;2.95;1.15;;;;;;;-2.49;64.53;99755.53;5031764;28;20098;-73
2023/11/29 02:40:36;;;;;;;4.75;1.85;;;;;;;-2.67;64.63;99749.66;5026322;28;20567;-71
2023/11/29 02:43:01;;;;;;;2.55;1.23;;;;;;;-2.22;64.16;99746.91;5028263;28;20396;-70
2023/11/29 02:45:27;;;;;;;3.05;1.25;;;;;;;-2.05;63.33;99741.66;5014788;28;20041;-70
2023/11/29 02:47:52;;;;;;;2.55;0.80;;;;;;;-2.34;63.40;99736.72;5008662;28;20219;-70
2023/11/29 02:50:18;;;;;;;3.85;1.35;;;;;;;-2.40;64.27;99732.50;5030034;28;20052;-70
2023/11/29 02:52:45;;;;;;;2.92;1.23;;;;;;;-2.94;65.85;99724.16;5024823;28;20045;-70
2023/11/29 02:55:11;;;;;;;3.10;1.02;;;;;;;-2.23;64.33;99728.09;5033154;28;20642;-70
2023/11/29 02:57:39;;;;;;;2.03;1.38;;;;;;;-2.56;64.95;99718.03;5025771;28;20040;-70
2023/11/29 03:00:06;;;;;;;3.53;0.82;;;;;;;-2.11;63.60;99716.97;5033292;28;20123;-70
2023/11/29 03:02:34;;;;;;;2.33;0.68;;;;;;;-2.56;64.84;99712.94;5016553;28;20044;-70
2023/11/29 03:05:02;;;;;;;2.92;1.00;;;;;;;-3.00;65.45;99719.91;5006030;28;20027;-68
2023/11/29 03:07:27;;;;;;;2.00;1.10;;;;;;;-2.71;65.04;99718.97;5029782;28;20045;-69
2023/11/29 03:09:53;;;;;;;1.95;0.93;;;;;;;-2.45;63.79;99714.59;5009642;28;20036;-68
2023/11/29 03:12:20;;;;;;;2.13;0.52;;;;;;;-2.58;64.08;99715.50;5016527;28;20518;-69
2023/11/29 03:14:46;;;;;;;1.75;0.50;;;;;;;-2.63;64.17;99702.72;5025728;28;20047;-69
2023/11/29 03:17:14;;;;;;;2.45;0.65;;;;;;;-2.83;64.76;99696.84;5028966;28;20029;-70
2023/11/29 03:19:39;;;;;;;1.27;0.32;;;;;;;-2.59;63.91;99700.16;5024223;28;20060;-69
2023/11/29 03:22:05;;;;;;;3.22;0.50;;;;;;;-2.95;65.12;99697.75;5007561;28;20035;-68
2023/11/29 03:24:33;;;;;;;3.63;0.40;;;;;;;-2.75;64.54;99699.38;5027321;28;20204;-67
2023/11/29 03:26:59;;;;;;;1.10;0.43;;;;;;;-2.69;64.36;99689.13;5035732;28;20036;-68
2023/11/29 03:29:25;;;;;;;1.35;0.60;;;;;;;-2.41;63.94;99689.81;5011113;28;20055;-69
2023/11/29 03:31:50;;;;;;;1.58;0.57;;;;;;;-2.30;63.17;99682.09;5025529;28;20092;-70
2023/11/29 03:34:16;;;;;;;2.08;0.70;;;;;;;-2.33;63.03;99680.41;5012026;28;20103;-69
2023/11/29 03:36:44;;;;;;;2.40;1.02;;;;;;;-2.09;62.62;99675.97;5024442;28;20033;-71
2023/11/29 03:39:09;;;;;;;1.98;0.63;;;;;;;-2.34;63.11;99673.56;5006245;28;20190;-70
2023/11/29 03:41:37;;;;;;;2.63;1.00;;;;;;;-2.78;64.60;99664.44;5026035;28;20041;-69
2023/11/29 03:44:03;;;;;;;2.65;1.20;;;;;;;-3.08;65.47;99667.94;5027317;28;20531;-69
2023/11/29 03:46:29;;;;;;;2.35;1.10;;;;;;;-2.27;63.45;99672.69;5020495;28;20128;-74
2023/11/29 03:48:59;;;;;;;2.78;1.10;;;;;;;-2.10;62.94;99676.84;4979215;28;20838;-73
2023/11/29 03:51:24;;;;;;;2.65;1.23;;;;;;;-2.58;64.90;99678.81;5009421;28;20516;-73
2023/11/29 03:53:52;;;;;;;4.32;1.83;;;;;;;-2.62;65.07;99675.44;5011315;28;20071;-72
2023/11/29 03:56:18;;;;;;;3.90;1.55;;;;;;;-2.53;64.70;99665.16;5028042;28;20574;-71
2023/11/29 03:58:43;;;;;;;4.75;1.67;;;;;;;-2.44;63.99;99654.03;5022606;28;20613;-71
2023/11/29 04:01:11;;;;;;;4.20;1.90;;;;;;;-2.14;63.45;99645.28;5013324;28;20606;-69
2023/11/29 04:03:39;;;;;;;3.40;2.10;;;;;;;-2.16;63.57;99643.59;5023999;28;20515;-68
2023/11/29 04:06:07;;;;;;;3.55;2.63;;;;;;;-2.35;64.08;99638.59;5026789;28;20039;-68
2023/11/29 04:08:35;;;;;;;4.03;2.00;;;;;;;-2.03;63.07;99630.69;5025157;28;20064;-68
2023/11/29 04:11:00;;;;;;;4.63;1.98;;;;;;;-2.06;63.02;99642.69;5026295;28;20620;-68
2023/11/29 04:13:26;;;;;;;3.15;2.10;;;;;;;-2.31;63.88;99639.41;5029758;28;20047;-67
2023/11/29 04:15:51;;;;;;;3.05;1.85;;;;;;;-1.97;62.80;99624.66;5022515;28;20730;-67
2023/11/29 04:18:19;;;;;;;3.70;2.08;;;;;;;-1.87;62.52;99617.75;5012446;28;20059;-67
2023/11/29 04:20:45;;;;;;;3.10;1.63;;;;;;;-2.02;63.02;99622.16;5023067;28;20387;-67
2023/11/29 04:23:10;;;;;;;2.42;1.45;;;;;;;-2.22;63.37;99621.47;5025988;28;20045;-67
2023/11/29 04:25:39;;;;;;;2.28;1.33;;;;;;;-2.27;63.74;99626.63;5025646;28;20021;-67
2023/11/29 04:28:04;;;;;;;2.50;1.10;;;;;;;-2.35;63.71;99622.41;5026839;28;20136;-67
2023/11/29 04:30:30;;;;;;;3.88;1.25;;;;;;;-2.48;64.17;99626.75;5036054;28;20124;-66
2023/11/29 04:32:56;;;;;;;2.80;2.03;;;;;;;-2.23;63.66;99628.28;5021505;28;20081;-67
2023/11/29 04:35:21;;;;;;;3.65;1.30;;;;;;;-2.28;63.98;99619.78;5028605;28;20690;-67
2023/11/29 04:37:47;;;;;;;3.25;1.58;;;;;;;-2.24;63.16;99620.63;5013225;28;20523;-67
2023/11/29 04:40:13;;;;;;;3.97;2.70;;;;;;;-2.00;62.86;99609.31;5029586;28;20025;-67
2023/11/29 04:42:40;;;;;;;6.60;2.20;;;;;;;-2.51;64.23;99606.31;5004149;28;20582;-67
2023/11/29 04:45:05;;;;;;;3.78;2.22;;;;;;;-2.05;62.72;99611.06;5025202;28;20082;-68
2023/11/29 04:47:31;;;;;;;4.15;2.10;;;;;;;-2.76;64.21;99611.59;5026986;28;20033;-68
2023/11/29 04:49:56;;;;;;;5.53;2.40;;;;;;;-2.80;64.86;99607.34;5023706;28;20037;-68
2023/11/29 04:52:22;;;;;;;5.43;2.65;;;;;;;-2.45;64.50;99617.38;5029678;28;20086;-67
2023/11/29 04:54:49;;;;;;;4.03;2.47;;;;;;;-2.08;63.02;99606.00;5023989;28;20546;-68
2023/11/29 04:57:15;;;;;;;6.20;3.17;;;;;;;-1.74;62.21;99610.81;5027018;28;20086;-67
2023/11/29 04:59:43;;;;;;;4.97;3.13;;;;;;;-2.49;64.00;99615.69;5012460;28;20139;-68
2023/11/29 05:02:08;;;;;;;4.13;2.47;;;;;;;-1.94;62.67;99609.28;5026766;28;20143;-68
2023/11/29 05:04:33;;;;;;;4.75;2.88;;;;;;;-1.91;62.27;99608.38;5030098;28;20585;-67
2023/11/29 05:06:59;;;;;;;7.53;3.33;;;;;;;-1.81;62.40;99626.22;5023486;28;20565;-68
2023/11/29 05:09:24;;;;;;;4.30;2.50;;;;;;;-1.79;62.03;99618.53;5029809;28;20040;-68
2023/11/29 05:11:52;;;;;;;4.22;3.13;;;;;;;-1.63;61.96;99624.38;5020550;28;20057;-68
2023/11/29 05:14:20;;;;;;;6.30;2.97;;;;;;;-1.70;61.46;99613.31;5029231;28;20029;-67
2023/11/29 05:16:46;;;;;;;4.95;3.03;;;;;;;-1.67;61.74;99612.44;5023539;28;21404;-67
2023/11/29 05:19:14;;;;;;;6.70;3.35;;;;;;;-1.44;61.24;99614.75;5028667;28;20080;-68
2023/11/29 05:21:39;;;;;;;6.57;3.42;;;;;;;-1.50;61.22;99617.41;5022737;28;20076;-68
2023/11/29 05:24:05;;;;;;;4.78;2.83;;;;;;;-1.47;60.84;99607.13;5021270;28;20186;-66
2023/11/29 05:26:33;;;;;;;7.60;3.17;;;;;;;-1.67;61.16;99613.28;5024987;28;20159;-69
2023/11/29 05:29:00;;;;;;;9.15;3.55;;;;;;;-1.97;61.84;99614.44;5028017;28;21053;-69
2023/11/29 05:31:26;;;;;;;3.22;2.00;;;;;;;-1.67;61.43;99617.56;5032410;28;20029;-68
2023/11/29 05:33:54;;;;;;;6.03;2.70;;;;;;;-1.51;60.53;99608.88;5022014;28;20518;-67
2023/11/29 05:36:24;;;;;;;5.03;2.50;;;;;;;-1.60;61.09;99612.38;5027531;28;20041;-66
2023/11/29 05:38:50;;;;;;;5.15;2.90;;;;;;;-1.65;60.94;99624.38;5023103;28;20410;-66
2023/11/29 05:41:16;;;;;;;6.07;2.50;;;;;;;-1.52;61.12;99621.69;5027837;28;20108;-67
2023/11/29 05:43:41;;;;;;;4.00;2.17;;;;;;;-1.52;60.98;99616.56;5021495;28;20404;-69
2023/11/29 05:46:07;;;;;;;6.15;2.97;;;;;;;-2.07;62.87;99621.34;5027152;28;20033;-67
2023/11/29 05:48:37;;;;;;;5.00;2.58;;;;;;;-1.81;61.73;99631.34;5025955;28;20093;-67
2023/11/29 05:51:03;;;;;;;4.22;2.55;;;;;;;-1.58;60.79;99622.59;5023294;28;20484;-69
2023/11/29 05:53:33;;;;;;;3.05;2.50;;;;;;;-2.07;61.91;99628.16;5023298;28;20056;-67
2023/11/29 05:55:59;;;;;;;3.22;2.35;;;;;;;-1.74;61.58;99639.00;5022341;28;20322;-64
2023/11/29 05:58:24;;;;;;;4.43;2.28;;;;;;;-1.57;61.00;99624.31;5017504;28;20068;-66
2023/11/29 06:00:55;;;;;;;6.85;3.05;;;;;;;-1.71;61.22;99642.38;5019421;28;20190;-64
2023/11/29 06:03:21;;;;;;;4.97;2.60;;;;;;;-1.49;60.88;99635.31;5027168;28;20614;-66
2023/11/29 06:05:47;;;;;;;4.53;1.90;;;;;;;-1.41;60.34;99625.84;5020746;28;20044;-65
2023/11/29 06:08:15;;;;;;;4.88;2.53;;;;;;;-1.43;60.40;99627.56;5024773;28;20037;-65
2023/11/29 06:10:42;;;;;;;3.88;2.28;;;;;;;-1.74;60.50;99627.03;5026213;28;20394;-67
2023/11/29 06:13:08;;;;;;;5.25;3.25;;;;;;;-1.59;60.88;99637.13;5021469;28;20127;-70
2023/11/29 06:15:34;;;;;;;3.45;1.85;;;;;;;-1.56;61.02;99633.69;5021815;28;20021;-69
2023/11/29 06:17:59;;;;;;;4.57;2.53;;;;;;;-1.52;60.83;99637.91;5023061;28;20043;-69
2023/11/29 06:20:27;;;;;;;3.30;2.25;;;;;;;-1.46;60.58;99637.03;5018924;28;20198;-66
2023/11/29 06:22:56;;;;;;;4.47;2.10;;;;;;;-1.67;60.52;99651.72;5023043;28;20049;-70
2023/11/29 06:25:21;;;;;;;3.80;2.47;;;;;;;-1.68;61.04;99662.84;5029100;28;20029;-69
2023/11/29 06:27:48;;;;;;;2.60;1.73;;;;;;;-1.96;61.23;99671.63;5026933;28;20029;-69
2023/11/29 06:30:18;;;;;;;2.83;1.50;;;;;;;-1.93;60.55;99674.13;5029330;28;20063;-68
2023/11/29 06:32:44;;;;;;;2.47;1.20;;;;;;;-1.97;60.82;99675.03;5008269;28;20484;-71
2023/11/29 06:35:18;;;;;;;1.38;0.70;;;;;;;-1.87;60.54;99681.78;5029022;28;20036;-68
2023/11/29 06:37:47;;;;;;;1.88;0.80;;;;;;;-1.86;60.24;99679.22;5026829;28;20044;-68
2023/11/29 06:40:16;;;;;;;1.70;0.82;;;;;;;-1.85;60.25;99685.19;5029898;28;20038;-73
2023/11/29 06:42:44;;;;;;;1.63;1.27;;;;;;;-1.85;60.63;99691.16;5013855;28;20049;-72
2023/11/29 06:45:13;;;;;;;2.03;1.40;;;;;;;-1.84;60.31;99687.75;5029269;28;21014;-72
2023/11/29 06:47:39;;;;;;;2.85;1.38;;;;;;;-1.88;60.43;99691.19;5028222;28;20049;-72
2023/11/29 06:50:05;;;;;;;2.78;0.82;;;;;;;-1.93;60.33;99690.38;5024721;28;20147;-71
2023/11/29 06:52:32;;;;;;;2.65;1.00;;;;;;;-2.07;61.07;99699.84;5029294;28;20028;-70
2023/11/29 06:54:58;;;;;;;5.70;0.70;;;;;;;-2.05;61.11;99700.69;5029027;28;20210;-69
2023/11/29 06:57:30;;;;;;;2.25;0.70;;;;;;;-2.26;62.06;99699.97;4999134;28;20061;-70
2023/11/29 06:59:56;;;;;;;3.55;1.50;;;;;;;-2.18;61.64;99699.06;5030118;28;20029;-69
2023/11/29 07:02:22;;;;;;;6.65;1.67;;;;;;;-2.38;62.16;99697.50;5018588;28;21316;-72
2023/11/29 07:04:48;;;;;;;5.88;3.00;;;;;;;-2.32;62.28;99696.59;5042246;28;20021;-75
2023/11/29 07:07:17;;;;;;;10.23;3.40;;;;;;;-2.18;61.77;99693.94;5029522;28;20039;-74
2023/11/29 07:09:43;;;;;;;14.73;4.30;;;;;;;-2.47;62.48;99698.41;5028732;28;20159;-71
2023/11/29 07:12:09;;;;;;;8.00;3.90;;;;;;;-2.63;63.28;99700.16;5024005;28;20115;-71
2023/11/29 07:14:35;;;;;;;8.70;3.75;;;;;;;-2.46;62.77;99704.38;5032812;28;20214;-67
2023/11/29 07:17:05;;;;;;;11.05;4.93;;;;;;;-2.72;63.52;99713.00;5025332;28;20024;-68
2023/11/29 07:19:33;;;;;;;10.02;4.45;;;;;;;-2.52;62.68;99722.28;5018853;28;20534;-66
2023/11/29 07:21:58;;;;;;;7.35;4.40;;;;;;;-2.50;62.34;99723.13;5026054;28;20029;-70
2023/11/29 07:24:24;;;;;;;7.97;4.15;;;;;;;-2.80;63.17;99727.53;5026322;28;20549;-69
2023/11/29 07:26:49;;;;;;;15.30;4.45;;;;;;;-2.52;62.45;99732.53;5025496;28;20040;-71
2023/11/29 07:29:15;;;;;;;8.43;4.30;;;;;;;-2.69;63.06;99733.47;5008381;28;20412;-71
2023/11/29 07:31:40;;;;;;;12.45;4.57;;;;;;;-2.66;62.75;99741.09;5012161;28;20541;-69
2023/11/29 07:34:06;;;;;;;10.80;4.53;;;;;;;-2.38;61.59;99738.44;5036746;28;20784;-69
2023/11/29 07:36:32;;;;;;;9.00;4.55;;;;;;;-2.52;61.90;99747.88;5028697;28;20043;-68
2023/11/29 07:38:58;;;;;;;8.02;4.53;;;;;;;-2.36;61.23;99749.50;5024899;28;20045;-70
2023/11/29 07:41:23;;;;;;;5.88;3.15;;;;;;;-2.64;61.98;99748.78;5028317;28;20144;-68
2023/11/29 07:43:49;;;;;;;9.60;4.25;;;;;;;-2.85;62.15;99759.91;5024238;28;20159;-68
2023/11/29 07:46:17;;;;;;;7.00;3.75;;;;;;;-2.77;61.82;99762.47;5027156;28;20060;-70
2023/11/29 07:48:42;;;;;;;5.78;2.72;;;;;;;-2.66;61.45;99755.63;5028197;28;20044;-65
2023/11/29 07:51:10;;;;;;;6.20;2.65;;;;;;;-2.90;61.92;99766.75;5025678;28;20036;-66
2023/11/29 07:53:35;;;;;;;4.65;2.75;;;;;;;-2.83;61.63;99768.44;5010292;28;20043;-65
2023/11/29 07:56:01;;;;;;;5.53;2.50;;;;;;;-3.11;62.29;99776.19;5025014;28;20135;-66
2023/11/29 07:58:26;;;;;;;8.88;3.15;;;;;;;-2.85;61.19;99785.50;5018468;28;20045;-66
2023/11/29 08:00:52;;;;;;;6.60;3.05;;;;;;;-2.64;61.02;99799.94;5024873;28;20036;-65
2023/11/29 08:03:17;;;;;;;6.70;3.47;;;;;;;-2.80;61.34;99794.03;5026568;28;20638;-67
2023/11/29 08:05:43;;;;;;;9.00;3.22;;;;;;;-2.95;61.52;99800.00;5027353;28;20484;-66
2023/11/29 08:08:09;;;;;;;6.35;3.65;;;;;;;-2.51;60.76;99805.88;5025986;28;20531;-65
2023/11/29 08:10:34;;;;;;;5.32;3.10;;;;;;;-3.03;61.22;99803.44;5029266;28;20060;-64
2023/11/29 08:13:00;;;;;;;7.90;3.88;;;;;;;-2.82;61.42;99816.19;5025835;28;20270;-65
2023/11/29 08:15:29;;;;;;;7.10;2.88;;;;;;;-2.71;60.98;99814.47;5010261;28;20110;-65
2023/11/29 08:17:55;;;;;;;6.07;3.25;;;;;;;-2.79;60.43;99826.41;5001368;28;20122;-65
2023/11/29 08:20:23;;;;;;;9.32;3.28;;;;;;;-3.11;61.38;99832.41;5028291;28;20491;-66
2023/11/29 08:22:49;;;;;;;8.23;2.65;;;;;;;-2.91;61.09;99837.50;5035732;28;20665;-66
2023/11/29 08:25:14;;;;;;;6.70;3.55;;;;;;;-3.03;61.32;99831.56;5026628;28;20092;-64
2023/11/29 08:27:40;;;;;;;4.18;2.55;;;;;;;-2.90;60.88;99834.09;5021221;28;20411;-65
2023/11/29 08:30:09;;;;;;;4.93;3.05;;;;;;;-2.75;60.64;99838.34;5008436;28;20030;-65
2023/11/29 08:32:35;;;;;;;10.82;3.25;;;;;;;-2.64;60.37;99839.16;5025017;28;20041;-65
2023/11/29 08:35:01;;;;;;;5.35;3.35;;;;;;;-2.52;60.12;99851.06;5024721;28;20048;-65
2023/11/29 08:37:26;;;;;;;5.63;3.95;;;;;;;-2.55;59.51;99850.25;5012376;28;20167;-66
2023/11/29 08:39:53;;;;;;;6.90;3.25;;;;;;;-2.51;59.63;99862.19;5004931;28;20092;-66
2023/11/29 08:42:19;;;;;;;3.95;3.05;;;;;;;-2.85;60.44;99867.31;5023032;28;20102;-66
2023/11/29 08:44:44;;;;;;;4.47;3.25;;;;;;;-2.76;60.08;99867.34;5028700;28;20029;-65
2023/11/29 08:47:10;;;;;;;5.28;2.78;;;;;;;-2.89;60.29;99865.66;5025377;28;20036;-64
2023/11/29 08:49:35;;;;;;;8.85;2.70;;;;;;;-2.57;58.96;99878.38;5025782;28;20098;-65
2023/11/29 08:52:03;;;;;;;9.85;2.58;;;;;;;-2.86;60.02;99886.94;5025820;28;20115;-66
2023/11/29 08:54:28;;;;;;;5.43;3.75;;;;;;;-2.72;59.30;99878.41;5023916;28;20137;-66
2023/11/29 08:56:54;;;;;;;4.35;2.25;;;;;;;-2.78;59.65;99879.28;5012654;28;20116;-66
2023/11/29 08:59:19;;;;;;;9.20;2.47;;;;;;;-2.78;59.38;99879.28;5025756;28;20057;-65
2023/11/29 09:01:45;;;;;;;3.65;2.33;;;;;;;-2.68;59.03;99878.41;5027066;28;20594;-65
2023/11/29 09:04:11;;;;;;;5.65;1.65;;;;;;;-2.80;59.07;99883.53;5023843;28;20151;-65
2023/11/29 09:06:36;;;;;;;7.85;2.25;;;;;;;-2.97;59.32;99882.69;5025258;28;20037;-65
2023/11/29 09:09:02;;;;;;;2.50;1.30;;;;;;;-2.92;58.86;99874.16;5025192;28;20053;-65
2023/11/29 09:11:27;;;;;;;3.08;1.40;;;;;;;-2.69;58.39;99881.81;5024028;28;20033;-64
2023/11/29 09:13:53;;;;;;;3.95;1.92;;;;;;;-2.76;58.59;99877.56;5026000;28;20579;-64
2023/11/29 09:16:18;;;;;;;6.18;1.90;;;;;;;-2.72;58.55;99886.91;5004555;28;20060;-64
2023/11/29 09:18:44;;;;;;;2.00;1.25;;;;;;;-2.59;58.03;99894.59;5026395;28;20872;-64
2023/11/29 09:21:10;;;;;;;3.40;2.00;;;;;;;-2.53;58.00;99899.72;5021190;28;20456;-65
2023/11/29 09:23:37;;;;;;;4.78;1.80;;;;;;;-2.44;57.52;99902.25;5024044;28;20201;-65
2023/11/29 09:26:03;;;;;;;8.68;1.98;;;;;;;-2.59;58.13;99904.81;5023750;28;20534;-65
2023/11/29 09:28:29;;;;;;;3.78;1.50;;;;;;;-2.32;56.99;99902.19;5023385;28;20033;-64
2023/11/29 09:30:54;;;;;;;5.10;1.77;;;;;;;-2.25;56.85;99908.16;5026474;28;20064;-64
2023/11/29 09:33:22;;;;;;;3.28;1.20;;;;;;;-2.37;56.49;99903.09;5019860;28;20053;-65
2023/11/29 09:35:48;;;;;;;2.25;2.00;;;;;;;-2.24;56.55;99908.16;5026080;28;20040;-65
2023/11/29 09:38:13;;;;;;;3.53;1.75;;;;;;;-2.42;56.35;99903.94;5021514;28;20040;-64
2023/11/29 09:40:40;;;;;;;3.08;1.10;;;;;;;-2.55;56.39;99917.59;5024402;28;21409;-64
2023/11/29 09:43:08;;;;;;;4.80;1.63;;;;;;;-2.36;56.07;99908.19;5018954;28;20049;-66
2023/11/29 09:45:33;;;;;;;4.25;2.17;;;;;;;-2.21;55.28;99912.41;5024899;28;20632;-66
2023/11/29 09:48:03;;;;;;;4.00;1.10;;;;;;;-2.30;55.84;99927.81;5018553;28;20454;-66
2023/11/29 09:50:31;;;;;;;2.58;1.35;;;;;;;-2.26;55.94;99920.13;5024879;28;20033;-65
2023/11/29 09:52:57;;;;;;;7.50;1.83;;;;;;;-2.21;55.71;99923.50;5012681;28;20075;-65
2023/11/29 09:55:27;;;;;;;5.05;2.50;;;;;;;-2.45;56.25;99929.56;5028039;28;20029;-66
2023/11/29 09:57:53;;;;;;;3.08;1.08;;;;;;;-2.19;55.53;99931.19;5027274;28;20041;-65
2023/11/29 10:00:19;;;;;;;6.47;2.38;;;;;;;-1.96;55.89;99932.81;5026535;28;20045;-65
2023/11/29 10:02:45;;;;;;;3.45;1.52;;;;;;;-2.05;55.64;99934.56;5025147;28;20049;-64
2023/11/29 10:05:11;;;;;;;3.15;1.38;;;;;;;-1.80;55.17;99937.03;5024510;28;20617;-66
2023/11/29 10:07:36;;;;;;;5.32;1.70;;;;;;;-2.09;55.80;99932.00;5024514;28;20310;-66
2023/11/29 10:10:06;;;;;;;4.07;1.92;;;;;;;-2.16;55.95;99932.88;5022356;28;20047;-66
2023/11/29 10:12:35;;;;;;;5.65;2.60;;;;;;;-2.06;55.39;99947.38;5022244;28;20301;-65
2023/11/29 10:15:00;;;;;;;3.63;1.35;;;;;;;-2.10;55.48;99938.84;5024997;28;20032;-66
2023/11/29 10:17:27;;;;;;;6.47;1.65;;;;;;;-1.94;55.48;99931.13;5026588;28;20099;-65
2023/11/29 10:19:56;;;;;;;5.43;1.52;;;;;;;-2.04;55.54;99935.44;5029744;28;20036;-66
2023/11/29 10:22:22;;;;;;;5.90;2.25;;;;;;;-1.67;55.06;99932.72;5039850;28;20458;-66
2023/11/29 10:24:48;;;;;;;5.53;2.25;;;;;;;-1.50;54.42;99933.47;5027747;28;20025;-66
2023/11/29 10:27:16;;;;;;;7.43;2.47;;;;;;;-1.20;53.78;99935.03;5024242;28;20041;-66
2023/11/29 10:29:41;;;;;;;5.10;3.22;;;;;;;-1.27;53.95;99932.50;5026870;28;20745;-66
2023/11/29 10:32:08;;;;;;;15.20;4.30;;;;;;;-1.05;53.54;99935.81;5023627;28;20139;-65
2023/11/29 10:34:37;;;;;;;5.28;2.13;;;;;;;-1.41;54.02;99938.56;5026333;28;20064;-65
2023/11/29 10:37:04;;;;;;;2.42;1.02;;;;;;;-1.43;53.74;99940.28;5023263;28;20597;-66
2023/11/29 10:39:32;;;;;;;1.85;0.63;;;;;;;-1.73;54.00;99950.66;5024770;28;20048;-67
2023/11/29 10:42:00;;;;;;;1.85;0.88;;;;;;;-1.66;53.83;99960.06;5026877;28;20120;-66
2023/11/29 10:44:31;;;;;;;7.50;2.58;;;;;;;-1.48;53.15;99961.69;5034246;28;20973;-65
2023/11/29 10:47:21;;;;;;;4.05;1.63;;;;;;;-1.24;53.07;99970.94;5027221;28;20650;-65
2023/11/29 10:49:49;;;;;;;3.17;1.25;;;;;;;-1.70;54.07;99971.16;5015558;28;20805;-65
2023/11/29 10:52:22;;;;;;;1.88;1.05;;;;;;;-1.42;52.85;99971.88;5021719;28;20055;-65
2023/11/29 10:54:49;;;;;;;1.20;0.55;;;;;;;-1.33;52.35;99969.28;5041678;28;20033;-65
2023/11/29 10:57:24;;;;;;;0.93;0.30;;;;;;;-1.51;52.67;99971.91;5022136;28;20264;-65
2023/11/29 11:00:00;;;;;;;2.85;0.73;;;;;;;-1.20;51.89;99972.63;5028137;28;20060;-65
2023/11/29 11:02:29;;;;;;;1.10;0.50;;;;;;;-1.32;51.49;99967.56;5031420;28;20052;-66
2023/11/29 11:05:05;;;;;;;3.22;0.88;;;;;;;-1.63;51.91;99977.97;5019012;28;20048;-66
2023/11/29 11:07:45;;;;;;;4.72;0.40;;;;;;;-1.71;52.20;99980.56;5024049;28;20321;-65
2023/11/29 11:10:17;;;;;;;5.65;0.55;;;;;;;-1.85;52.53;99988.28;5024830;28;20029;-64
2023/11/29 11:12:44;;;;;;;;;;;;;;;-1.68;51.57;99989.94;5003031;28;20283;-64
2023/11/29 11:15:19;;;;;;;0.93;0.38;;;;;;;-1.45;50.81;99995.81;5029993;28;19972;-65
2023/11/29 11:18:05;;;;;;;3.25;1.00;;;;;;;-1.56;51.31;99989.88;5026220;28;20056;-65
2023/11/29 11:20:50;;;;;;;1.77;0.45;;;;;;;-1.41;51.08;99997.50;5024397;28;20029;-64
2023/11/29 11:23:19;;;;;;;3.88;0.57;;;;;;;-1.61;50.97;99996.75;5022176;28;20048;-66
2023/11/29 11:25:45;;;;;;;1.02;0.30;;;;;;;-1.61;50.28;99999.31;5031316;28;20062;-65
2023/11/29 11:28:41;;;;;;;0.65;0.30;;;;;;;-1.35;50.16;99998.34;5023773;28;20117;-66
2023/11/29 11:31:08;;;;;;;0.60;0.22;;;;;;;-1.30;50.09;99989.78;5011139;28;20045;-65